Time;durP1;ratioP1;P1;durP2;ratioP2;P2;SDS_P1;SDS_P2;PMS_P1;PMS_P2;Temp;Humidity;BMP_temperature;BMP_pressure;BME280_temperature;BME280_humidity;BME280_pressure;Samples;Min_cycle;Max_cycle;Signal;HPM_P1;HPM_P2
2022/04/03 00:01:24;;;;;;;;;;;;;;;0.65;63.23;92211.03;2055400;70;20497;-72
2022/04/03 00:03:50;;;;;;;;;;;;;;;0.77;62.64;92214.09;2054516;70;20066;-74
2022/04/03 00:06:15;;;;;;;;;;;;;;;0.56;63.82;92214.38;2064405;69;20059;-73
2022/04/03 00:08:41;;;;;;;;;;;;;;;0.72;62.82;92215.78;2051332;70;20046;-73
2022/04/03 00:11:06;;;;;;;;;;;;;;;0.53;64.39;92209.19;2051308;69;20082;-73
2022/04/03 00:13:32;;;;;;;;;;;;;;;0.70;63.27;92223.19;2051649;70;20651;-72
2022/04/03 00:21:43;;;;;;;;;;;;;;;0.73;62.49;92231.13;2057279;69;20153;-68
2022/04/03 00:24:09;;;;;;;;;;;;;;;0.51;63.92;92220.84;2054511;70;20097;-65
2022/04/03 00:26:34;;;;;;;;;;;;;;;0.68;62.45;92220.22;2054538;70;20433;-69
2022/04/03 00:29:00;;;;;;;;;;;;;;;0.75;62.01;92223.00;2054168;69;20089;-65
2022/04/03 00:31:25;;;;;;;;;;;;;;;0.49;63.26;92226.19;2054731;70;20064;-65
2022/04/03 00:33:51;;;;;;;;;;;;;;;0.58;62.88;92225.63;2054788;69;20061;-66
2022/04/03 00:36:16;;;;;;;;;;;;;;;0.55;62.64;92232.28;2054807;69;20092;-69
2022/04/03 00:38:42;;;;;;;;;;;;;;;0.23;65.44;92236.41;2057831;69;20057;-66
2022/04/03 00:41:08;;;;;;;;;;;;;;;0.45;63.18;92232.09;2058006;69;20054;-67
2022/04/03 00:43:33;;;;;;;;;;;;;;;0.33;64.61;92233.06;2058022;69;20057;-70
2022/04/03 00:45:59;;;;;;;;;;;;;;;0.40;64.43;92232.31;2057389;69;20050;-68
2022/04/03 00:48:25;;;;;;;;;;;;;;;0.32;64.79;92237.88;2060214;69;20058;-68
2022/04/03 00:50:51;;;;;;;;;;;;;;;0.46;64.10;92246.72;2058051;69;20081;-65
2022/04/03 00:53:16;;;;;;;;;;;;;;;0.48;63.64;92244.84;2058038;69;20222;-66
2022/04/03 00:55:42;;;;;;;;;;;;;;;0.46;64.45;92243.94;2057991;69;20137;-66
2022/04/03 00:58:09;;;;;;;;;;;;;;;0.43;64.10;92239.50;2058126;69;20183;-71
2022/04/03 01:00:35;;;;;;;;;;;;;;;0.33;64.50;92242.09;2058147;69;20053;-70
2022/04/03 01:03:01;;;;;;;;;;;;;;;0.46;64.44;92252.25;2060235;69;20112;-68
2022/04/03 01:05:27;;;;;;;;;;;;;;;0.56;62.85;92252.41;2058753;69;20128;-66
2022/04/03 01:07:52;;;;;;;;;;;;;;;0.04;66.10;92249.13;2058602;69;20093;-69
2022/04/03 01:10:18;;;;;;;;;;;;;;;0.35;64.26;92252.63;2058882;69;20087;-67
2022/04/03 01:12:46;;;;;;;;;;;;;;;0.06;65.94;92261.13;2058698;69;20240;-66
2022/04/03 01:15:15;;;;;;;;;;;;;;;0.20;65.19;92256.13;2058714;69;20158;-69
2022/04/03 01:17:41;;;;;;;;;;;;;;;0.47;62.72;92262.03;2058562;69;20069;-69
2022/04/03 01:20:07;;;;;;;;;;;;;;;0.46;63.10;92263.31;2058607;69;20048;-66
2022/04/03 01:22:33;;;;;;;;;;;;;;;0.42;62.44;92263.69;2058489;69;20525;-68
2022/04/03 01:24:59;;;;;;;;;;;;;;;0.50;62.48;92274.75;2058393;69;20099;-66
2022/04/03 01:27:24;;;;;;;;;;;;;;;0.36;64.18;92265.16;2058532;69;20474;-65
2022/04/03 01:29:52;;;;;;;;;;;;;;;0.41;64.09;92269.75;2058273;69;20086;-65
2022/04/03 01:32:18;;;;;;;;;;;;;;;0.33;65.15;92269.78;2058379;69;20061;-68
2022/04/03 01:34:43;;;;;;;;;;;;;;;0.39;64.44;92262.03;2058425;69;20054;-68
2022/04/03 01:37:08;;;;;;;;;;;;;;;0.35;64.55;92266.47;2058160;69;20540;-69
2022/04/03 01:39:34;;;;;;;;;;;;;;;0.19;64.95;92266.47;2058134;69;20454;-67
2022/04/03 01:42:01;;;;;;;;;;;;;;;-0.20;67.50;92269.78;2058529;69;20152;-69
2022/04/03 01:44:27;;;;;;;;;;;;;;;-0.03;65.27;92267.94;2058153;69;20057;-70
2022/04/03 01:46:52;;;;;;;;;;;;;;;0.19;65.05;92268.50;2057561;69;20084;-71
2022/04/03 01:49:17;;;;;;;;;;;;;;;0.22;64.91;92272.91;2060366;69;20053;-67
2022/04/03 01:51:43;;;;;;;;;;;;;;;0.24;63.78;92265.56;2058284;69;20173;-70
2022/04/03 01:54:08;;;;;;;;;;;;;;;0.35;63.84;92269.97;2058163;69;20057;-69
2022/04/03 01:56:34;;;;;;;;;;;;;;;0.37;63.66;92272.19;2057636;69;20053;-66
2022/04/03 01:59:01;;;;;;;;;;;;;;;0.37;63.37;92272.94;2058124;69;20082;-66
2022/04/03 02:01:28;;;;;;;;;;;;;;;0.30;63.43;92272.94;2058445;69;20080;-67
2022/04/03 02:03:54;;;;;;;;;;;;;;;0.33;63.69;92280.88;2058610;69;20058;-67
2022/04/03 02:06:19;;;;;;;;;;;;;;;0.30;63.26;92281.22;2058468;69;20504;-69
2022/04/03 02:08:45;;;;;;;;;;;;;;;0.23;63.86;92286.22;2058481;69;20048;-67
2022/04/03 02:11:10;;;;;;;;;;;;;;;0.23;63.88;92280.69;2057794;69;20077;-69
2022/04/03 02:13:36;;;;;;;;;;;;;;;0.30;63.73;92281.22;2058154;69;20050;-69
2022/04/03 02:16:02;;;;;;;;;;;;;;;0.30;64.19;92281.22;2058363;69;20142;-67
2022/04/03 02:18:28;;;;;;;;;;;;;;;0.26;64.19;92284.38;2058529;69;20068;-69
2022/04/03 02:20:54;;;;;;;;;;;;;;;0.29;63.58;92279.75;2058358;69;20054;-67
2022/04/03 02:23:19;;;;;;;;;;;;;;;0.10;64.63;92282.91;2060446;69;20054;-68
2022/04/03 02:25:45;;;;;;;;;;;;;;;0.22;64.03;92290.28;2058452;69;20056;-70
2022/04/03 02:28:12;;;;;;;;;;;;;;;-0.01;64.63;92281.97;2058369;69;20520;-68
2022/04/03 02:30:37;;;;;;;;;;;;;;;-0.12;65.92;92287.88;2058499;69;20057;-65
2022/04/03 02:33:03;;;;;;;;;;;;;;;0.10;64.36;92289.19;2058326;69;20074;-66
2022/04/03 02:35:28;;;;;;;;;;;;;;;0.09;64.45;92292.47;2058180;69;20054;-67
2022/04/03 02:37:54;;;;;;;;;;;;;;;0.22;64.21;92289.53;2058565;69;20493;-69
2022/04/03 02:40:19;;;;;;;;;;;;;;;0.13;64.43;92287.31;2058637;69;20046;-71
2022/04/03 02:42:45;;;;;;;;;;;;;;;0.07;65.09;92290.28;2058605;69;20066;-69
2022/04/03 02:45:11;;;;;;;;;;;;;;;0.08;64.24;92297.28;2058610;69;20128;-73
2022/04/03 02:47:37;;;;;;;;;;;;;;;0.20;63.28;92303.19;2058683;69;20141;-71
2022/04/03 02:50:04;;;;;;;;;;;;;;;0.30;62.65;92303.38;2058718;69;20137;-69
2022/04/03 02:52:29;;;;;;;;;;;;;;;0.06;64.28;92299.88;2058501;69;20058;-68
2022/04/03 02:54:56;;;;;;;;;;;;;;;0.10;64.68;92302.28;2058457;69;20112;-68
2022/04/03 02:57:22;;;;;;;;;;;;;;;-0.11;65.14;92314.25;2058415;69;20046;-69
2022/04/03 02:59:47;;;;;;;;;;;;;;;0.06;64.78;92310.22;2058470;69;20493;-68
2022/04/03 03:02:13;;;;;;;;;;;;;;;0.08;64.12;92316.66;2058540;69;20074;-67
2022/04/03 03:04:38;;;;;;;;;;;;;;;0.09;63.87;92318.16;2058567;69;20058;-67
2022/04/03 03:07:05;;;;;;;;;;;;;;;0.08;64.06;92313.88;2058567;69;20050;-67
2022/04/03 03:09:30;;;;;;;;;;;;;;;0.01;64.48;92306.34;2058500;69;20093;-67
2022/04/03 03:11:56;;;;;;;;;;;;;;;0.02;64.16;92312.59;2058560;69;20155;-68
2022/04/03 03:14:21;;;;;;;;;;;;;;;0.12;63.83;92308.72;2058632;69;20213;-72
2022/04/03 03:16:47;;;;;;;;;;;;;;;0.14;63.76;92308.19;2058549;69;20050;-69
2022/04/03 03:19:15;;;;;;;;;;;;;;;0.20;63.35;92311.50;2058467;69;20046;-71
2022/04/03 03:21:42;;;;;;;;;;;;;;;0.05;64.71;92314.28;2058515;69;20074;-67
2022/04/03 03:24:07;;;;;;;;;;;;;;;0.08;64.26;92304.84;2058444;69;20050;-68
2022/04/03 03:26:33;;;;;;;;;;;;;;;0.13;63.05;92307.44;2058581;69;20056;-68
2022/04/03 03:28:58;;;;;;;;;;;;;;;0.08;63.88;92315.91;2058545;69;20145;-68
2022/04/03 03:31:24;;;;;;;;;;;;;;;0.15;64.04;92318.69;2058547;69;20046;-71
2022/04/03 03:33:49;;;;;;;;;;;;;;;0.12;64.06;92308.00;2057953;69;20405;-68
2022/04/03 03:36:15;;;;;;;;;;;;;;;0.01;65.20;92316.66;2058568;69;20083;-67
2022/04/03 03:38:40;;;;;;;;;;;;;;;0.08;65.00;92319.41;2058375;69;20176;-67
2022/04/03 03:41:06;;;;;;;;;;;;;;;0.12;64.31;92308.72;2058680;69;20061;-67
2022/04/03 03:43:32;;;;;;;;;;;;;;;0.23;63.80;92316.69;2060754;69;20090;-67
2022/04/03 03:45:58;;;;;;;;;;;;;;;0.18;64.20;92309.31;2058460;69;20619;-67
2022/04/03 03:48:24;;;;;;;;;;;;;;;0.15;64.38;92318.69;2058461;69;20050;-71
2022/04/03 03:50:49;;;;;;;;;;;;;;;0.24;64.01;92318.16;2057915;69;20057;-69
2022/04/03 03:53:15;;;;;;;;;;;;;;;0.26;63.72;92320.34;2058372;69;20053;-72
2022/04/03 03:55:40;;;;;;;;;;;;;;;0.25;63.31;92319.63;2058469;69;20491;-68
2022/04/03 03:58:06;;;;;;;;;;;;;;;0.22;63.03;92329.03;2058409;69;20489;-68
2022/04/03 04:00:32;;;;;;;;;;;;;;;0.21;63.17;92329.59;2058561;69;20042;-68
2022/04/03 04:02:57;;;;;;;;;;;;;;;0.20;64.19;92337.16;2058559;69;20149;-70
2022/04/03 04:05:23;;;;;;;;;;;;;;;0.18;63.89;92336.22;2058430;69;20488;-70
2022/04/03 04:07:49;;;;;;;;;;;;;;;0.17;64.09;92341.03;2058383;69;20057;-69
2022/04/03 04:10:16;;;;;;;;;;;;;;;0.25;63.04;92343.81;2057856;69;20069;-67
2022/04/03 04:12:42;;;;;;;;;;;;;;;0.15;63.95;92343.63;2058568;69;20156;-68
2022/04/03 04:15:08;;;;;;;;;;;;;;;0.04;64.82;92349.50;2057928;69;20090;-67
2022/04/03 04:17:38;;;;;;;;;;;;;;;0.08;64.07;92355.41;2058458;69;20085;-69
2022/04/03 04:20:11;;;;;;;;;;;;;;;0.07;64.38;92358.72;2058375;69;20049;-70
2022/04/03 04:22:36;;;;;;;;;;;;;;;0.00;64.38;92351.91;2058248;69;20142;-69
2022/04/03 04:25:02;;;;;;;;;;;;;;;0.06;63.56;92352.47;2058377;69;20145;-69
2022/04/03 04:27:28;;;;;;;;;;;;;;;0.04;64.13;92357.78;2057886;69;20156;-69
2022/04/03 04:29:53;;;;;;;;;;;;;;;-0.03;64.51;92361.31;2057803;69;20066;-69
2022/04/03 04:32:21;;;;;;;;;;;;;;;-0.06;64.71;92360.38;2058343;69;20042;-70
2022/04/03 04:34:50;;;;;;;;;;;;;;;0.02;64.06;92367.97;2058439;69;20093;-69
2022/04/03 04:37:16;;;;;;;;;;;;;;;-0.02;63.51;92371.81;2058388;69;20050;-71
2022/04/03 04:39:41;;;;;;;;;;;;;;;-0.09;64.38;92369.03;2058456;69;20101;-69
2022/04/03 04:42:07;;;;;;;;;;;;;;;-0.13;64.11;92380.47;2058920;69;20089;-68
2022/04/03 04:44:32;;;;;;;;;;;;;;;-0.18;64.14;92375.09;2058856;69;20473;-68
2022/04/03 04:46:58;;;;;;;;;;;;;;;-0.26;64.34;92383.38;2058786;69;20478;-68
2022/04/03 04:49:23;;;;;;;;;;;;;;;-0.12;63.81;92381.94;2058834;69;20148;-68
2022/04/03 04:51:49;;;;;;;;;;;;;;;-0.28;64.20;92380.41;2058924;69;20049;-68
2022/04/03 04:54:14;;;;;;;;;;;;;;;-0.22;63.57;92385.78;2058738;69;20046;-69
2022/04/03 04:56:40;;;;;;;;;;;;;;;-0.19;63.90;92384.69;2058836;69;20460;-70
2022/04/03 04:59:05;;;;;;;;;;;;;;;-0.28;63.68;92388.72;2058926;69;20402;-69
2022/04/03 05:01:31;;;;;;;;;;;;;;;-0.36;64.07;92388.69;2058357;69;20070;-69
2022/04/03 05:03:56;;;;;;;;;;;;;;;-0.38;63.79;92394.03;2058819;69;20054;-69
2022/04/03 05:06:25;;;;;;;;;;;;;;;-0.33;63.02;92395.16;2058758;69;20066;-70
2022/04/03 05:08:51;;;;;;;;;;;;;;;-0.33;62.47;92403.44;2058706;69;20155;-71
2022/04/03 05:11:17;;;;;;;;;;;;;;;-0.26;61.85;92403.47;2058986;69;20479;-69
2022/04/03 05:13:43;;;;;;;;;;;;;;;-0.29;61.60;92407.34;2058933;69;20559;-70
2022/04/03 05:16:08;;;;;;;;;;;;;;;-0.39;62.24;92413.94;2058762;69;20049;-68
2022/04/03 05:18:35;;;;;;;;;;;;;;;-0.35;61.75;92409.53;2058946;69;20054;-68
2022/04/03 05:21:01;;;;;;;;;;;;;;;-0.35;62.09;92409.53;2058837;69;20112;-70
2022/04/03 05:23:26;;;;;;;;;;;;;;;-0.35;61.84;92423.38;2060892;69;20058;-68
2022/04/03 05:25:52;;;;;;;;;;;;;;;-0.38;62.01;92423.72;2058762;69;20486;-68
2022/04/03 05:28:17;;;;;;;;;;;;;;;-0.41;62.11;92425.56;2058808;69;20049;-72
2022/04/03 05:30:43;;;;;;;;;;;;;;;-0.41;62.53;92417.25;2058769;69;20050;-71
2022/04/03 05:33:08;;;;;;;;;;;;;;;-0.42;62.42;92426.81;2058236;69;20042;-69
2022/04/03 05:35:34;;;;;;;;;;;;;;;-0.38;62.73;92432.00;2058890;69;20477;-69
2022/04/03 05:37:59;;;;;;;;;;;;;;;-0.44;62.88;92432.16;2058636;69;20054;-68
2022/04/03 05:40:25;;;;;;;;;;;;;;;-0.49;63.08;92429.56;2058788;69;20059;-68
2022/04/03 05:42:51;;;;;;;;;;;;;;;-0.42;62.97;92429.59;2058634;69;20145;-72
2022/04/03 05:45:16;;;;;;;;;;;;;;;-0.44;63.54;92440.47;2058604;69;20111;-72
2022/04/03 05:47:42;;;;;;;;;;;;;;;-0.37;62.94;92441.78;2058625;69;20062;-67
2022/04/03 05:50:07;;;;;;;;;;;;;;;-0.38;63.05;92443.06;2058685;69;20429;-67
2022/04/03 05:52:40;;;;;;;;;;;;;;;-0.32;63.36;92449.94;2058393;69;20049;-68
2022/04/03 05:55:08;;;;;;;;;;;;;;;-0.36;63.43;92457.84;2058664;69;20054;-68
2022/04/03 05:57:34;;;;;;;;;;;;;;;-0.27;62.69;92456.59;2058799;69;20476;-69
2022/04/03 06:00:00;;;;;;;;;;;;;;;-0.36;63.15;92459.88;2058293;69;20054;-68
2022/04/03 06:02:26;;;;;;;;;;;;;;;-0.21;61.74;92461.97;2058680;69;20053;-72
2022/04/03 06:04:52;;;;;;;;;;;;;;;-0.27;62.37;92464.91;2058744;69;20281;-69
2022/04/03 06:07:18;;;;;;;;;;;;;;;-0.36;63.51;92466.16;2058638;69;20166;-72
2022/04/03 06:09:43;;;;;;;;;;;;;;;-0.34;63.85;92463.56;2058796;69;20054;-70
2022/04/03 06:12:09;;;;;;;;;;;;;;;-0.29;63.91;92475.75;2058719;69;20056;-70
2022/04/03 06:14:34;;;;;;;;;;;;;;;-0.30;64.31;92466.72;2058773;69;20138;-68
2022/04/03 06:17:00;;;;;;;;;;;;;;;-0.22;64.11;92469.53;2058776;69;20137;-69
2022/04/03 06:19:25;;;;;;;;;;;;;;;-0.22;64.14;92469.53;2058748;69;20053;-68
2022/04/03 06:21:51;;;;;;;;;;;;;;;-0.10;63.21;92475.47;2058624;69;20140;-69
2022/04/03 06:24:16;;;;;;;;;;;;;;;-0.02;63.19;92479.00;2058544;69;20120;-70
2022/04/03 06:26:42;;;;;;;;;;;;;;;-0.06;63.48;92482.13;2058565;69;20046;-69
2022/04/03 06:29:08;;;;;;;;;;;;;;;-0.12;63.65;92478.78;2058631;69;20056;-69
2022/04/03 06:31:33;;;;;;;;;;;;;;;-0.05;63.64;92483.59;2058566;69;20148;-68
2022/04/03 06:33:59;;;;;;;;;;;;;;;-0.02;63.35;92479.75;2058636;69;20120;-72
2022/04/03 06:36:24;;;;;;;;;;;;;;;0.11;63.17;92486.44;2058657;69;20066;-71
2022/04/03 06:38:50;;;;;;;;;;;;;;;0.10;63.53;92488.47;2058437;69;20054;-72
2022/04/03 06:41:17;;;;;;;;;;;;;;;0.22;63.48;92477.78;2058713;69;20042;-69
2022/04/03 06:43:43;;;;;;;;;;;;;;;0.24;63.62;92480.78;2058705;69;20049;-73
2022/04/03 06:46:08;;;;;;;;;;;;;;;0.35;63.58;92477.66;2058519;69;20057;-71
2022/04/03 06:48:34;;;;;;;;;;;;;;;0.39;63.38;92486.34;2058760;69;20157;-73
2022/04/03 06:51:00;;;;;;;;;;;;;;;0.10;64.06;92484.97;2058726;69;20061;-74
2022/04/03 06:53:26;;;;;;;;;;;;;;;0.40;63.92;92487.81;2058560;69;20437;-69
2022/04/03 06:55:51;;;;;;;;;;;;;;;0.56;64.10;92482.31;2058624;69;20066;-72
2022/04/03 06:58:17;;;;;;;;;;;;;;;1.12;64.54;92489.56;2058607;69;20050;-72
2022/04/03 07:00:42;;;;;;;;;;;;;;;1.34;63.54;92492.88;2058165;69;20042;-73
2022/04/03 07:03:08;;;;;;;;;;;;;;;1.72;63.56;92490.78;2058626;69;20045;-71
2022/04/03 07:05:33;;;;;;;;;;;;;;;2.00;62.04;92494.59;2058567;69;20046;-70
2022/04/03 07:07:59;;;;;;;;;;;;;;;2.39;62.09;92498.72;2058470;69;20123;-68
2022/04/03 07:10:25;;;;;;;;;;;;;;;2.73;60.92;92500.19;2058506;69;20050;-71
2022/04/03 07:12:50;;;;;;;;;;;;;;;3.42;60.56;92492.09;2058530;69;20052;-71
2022/04/03 07:15:16;;;;;;;;;;;;;;;3.63;59.69;92500.06;2058419;69;20046;-71
2022/04/03 07:17:43;;;;;;;;;;;;;;;3.72;57.59;92496.66;2058436;69;20095;-71
2022/04/03 07:20:09;;;;;;;;;;;;;;;3.92;56.87;92502.41;2058403;69;20060;-73
2022/04/03 07:22:34;;;;;;;;;;;;;;;4.20;54.00;92507.47;2058323;69;20042;-72
2022/04/03 07:25:00;;;;;;;;;;;;;;;4.85;55.50;92497.94;2058704;69;20524;-72
2022/04/03 07:27:26;;;;;;;;;;;;;;;4.84;54.34;92500.00;2058622;69;20394;-72
2022/04/03 07:29:51;;;;;;;;;;;;;;;5.25;53.25;92499.59;2058646;69;20109;-72
2022/04/03 07:32:17;;;;;;;;;;;;;;;5.68;50.80;92505.59;2058548;69;20507;-74
2022/04/03 07:34:42;;;;;;;;;;;;;;;5.65;51.36;92499.16;2058677;69;20046;-74
2022/04/03 07:37:08;;;;;;;;;;;;;;;5.78;51.07;92501.53;2058577;69;20050;-68
2022/04/03 07:39:33;;;;;;;;;;;;;;;5.97;48.60;92502.94;2058399;69;20057;-69
2022/04/03 07:41:59;;;;;;;;;;;;;;;5.45;48.14;92503.94;2058034;69;20093;-71
2022/04/03 07:44:25;;;;;;;;;;;;;;;5.77;47.99;92502.88;2058551;69;20476;-70
2022/04/03 07:46:50;;;;;;;;;;;;;;;6.07;49.00;92498.06;2058518;69;20481;-70
2022/04/03 07:49:16;;;;;;;;;;;;;;;6.17;45.61;92506.47;2058583;69;20042;-73
2022/04/03 07:51:42;;;;;;;;;;;;;;;6.05;46.27;92500.75;2058497;69;20070;-73
2022/04/03 07:54:07;;;;;;;;;;;;;;;5.71;45.90;92498.88;2058474;69;20050;-74
2022/04/03 07:56:33;;;;;;;;;;;;;;;5.93;45.42;92499.81;2058453;69;20042;-70
2022/04/03 07:58:58;;;;;;;;;;;;;;;6.01;44.16;92508.81;2058454;69;20469;-71
2022/04/03 08:01:24;;;;;;;;;;;;;;;5.56;44.59;92499.88;2058482;69;20141;-75
2022/04/03 08:03:50;;;;;;;;;;;;;;;5.40;43.84;92501.41;2058422;69;20049;-73
2022/04/03 08:06:15;;;;;;;;;;;;;;;5.48;42.83;92499.97;2058395;69;20046;-71
2022/04/03 08:08:41;;;;;;;;;;;;;;;5.66;43.50;92506.19;2058305;69;20515;-69
2022/04/03 08:11:07;;;;;;;;;;;;;;;5.23;44.62;92507.81;2058453;69;20046;-68
2022/04/03 08:13:33;;;;;;;;;;;;;;;5.71;43.57;92510.78;2058534;69;20085;-74
2022/04/03 08:15:58;;;;;;;;;;;;;;;5.69;43.81;92504.31;2058935;69;20058;-73
2022/04/03 08:18:25;;;;;;;;;;;;;;;5.76;42.79;92503.44;2058415;69;20050;-72
2022/04/03 08:20:51;;;;;;;;;;;;;;;4.85;43.63;92503.50;2058915;69;20141;-71
2022/04/03 08:23:16;;;;;;;;;;;;;;;5.58;43.84;92506.31;2058805;69;20061;-78
2022/04/03 08:25:45;;;;;;;;;;;;;;;5.51;43.39;92504.41;2058491;69;20069;-76
2022/04/03 08:28:10;;;;;;;;;;;;;;;5.65;43.64;92512.38;2058890;69;20478;-74
2022/04/03 08:30:37;;;;;;;;;;;;;;;5.61;43.06;92507.22;2058795;69;20053;-76
2022/04/03 08:33:06;;;;;;;;;;;;;;;5.64;41.57;92508.13;2058777;69;20042;-75
2022/04/03 08:35:32;;;;;;;;;;;;;;;5.70;42.18;92519.75;2058745;69;20148;-73
2022/04/03 08:37:58;;;;;;;;;;;;;;;4.81;43.86;92517.91;2058581;69;20550;-71
2022/04/03 08:40:24;;;;;;;;;;;;;;;5.32;43.15;92524.63;2058741;69;20485;-68
2022/04/03 08:42:51;;;;;;;;;;;;;;;4.98;43.77;92527.50;2058830;69;20124;-68
2022/04/03 08:45:16;;;;;;;;;;;;;;;4.94;43.55;92516.78;2058860;69;20504;-68
2022/04/03 08:47:41;;;;;;;;;;;;;;;4.63;43.89;92518.47;2058825;69;20061;-73
2022/04/03 08:50:07;;;;;;;;;;;;;;;4.67;43.74;92527.91;2058891;69;20053;-70
2022/04/03 08:52:35;;;;;;;;;;;;;;;3.69;45.65;92522.84;2058745;69;20049;-75
2022/04/03 08:55:02;;;;;;;;;;;;;;;3.64;44.94;92532.16;2058871;69;20390;-71
2022/04/03 08:57:27;;;;;;;;;;;;;;;3.51;44.31;92524.84;2058826;69;20555;-76
2022/04/03 08:59:53;;;;;;;;;;;;;;;4.50;45.10;92533.53;2058944;69;20054;-71
2022/04/03 09:02:19;;;;;;;;;;;;;;;5.15;44.13;92530.25;2058809;69;20046;-70
2022/04/03 09:04:44;;;;;;;;;;;;;;;5.38;42.99;92529.91;2058803;69;20205;-71
2022/04/03 09:07:15;;;;;;;;;;;;;;;5.29;42.18;92531.34;2058734;69;20152;-71
2022/04/03 09:09:41;;;;;;;;;;;;;;;5.86;41.67;92524.50;2058813;69;20057;-75
2022/04/03 09:12:14;;;;;;;;;;;;;;;6.15;42.13;92523.09;2058815;69;20054;-67
2022/04/03 09:14:46;;;;;;;;;;;;;;;5.92;41.98;92520.72;2058743;69;20050;-67
2022/04/03 09:17:12;;;;;;;;;;;;;;;5.89;41.48;92530.22;2058714;69;20465;-67
2022/04/03 09:19:37;;;;;;;;;;;;;;;6.40;41.24;92536.78;2058657;69;20050;-67
2022/04/03 09:22:03;;;;;;;;;;;;;;;5.46;41.25;92524.22;2058745;69;20052;-67
2022/04/03 09:24:29;;;;;;;;;;;;;;;5.26;39.45;92534.56;2058088;69;20061;-72
2022/04/03 09:26:58;;;;;;;;;;;;;;;6.05;39.94;92534.28;2058888;69;20057;-75
2022/04/03 09:29:24;;;;;;;;;;;;;;;6.81;39.82;92524.41;2058775;69;20424;-70
2022/04/03 09:31:57;;;;;;;;;;;;;;;7.04;39.58;92521.13;2058809;69;20053;-73
2022/04/03 09:34:24;;;;;;;;;;;;;;;6.58;37.38;92524.13;2058763;69;20116;-74
2022/04/03 09:37:00;;;;;;;;;;;;;;;6.90;35.58;92520.13;2058168;69;20057;-72
2022/04/03 09:39:27;;;;;;;;;;;;;;;6.98;37.12;92525.56;2058631;69;20066;-74
2022/04/03 09:42:03;;;;;;;;;;;;;;;7.05;37.30;92519.06;2058197;69;20436;-74
2022/04/03 09:44:30;;;;;;;;;;;;;;;7.08;36.26;92512.28;2058724;69;20061;-73
2022/04/03 09:47:32;;;;;;;;;;;;;;;7.09;34.69;92516.56;2058718;69;20120;-70
2022/04/03 09:50:05;;;;;;;;;;;;;;;7.01;36.53;92519.53;2050863;70;20055;-71
2022/04/03 09:52:45;;;;;;;;;;;;;;;6.37;35.31;92516.34;2050796;70;20050;-71
2022/04/03 09:55:21;;;;;;;;;;;;;;;7.30;35.28;92521.50;2050882;69;20059;-69
2022/04/03 09:58:00;;;;;;;;;;;;;;;7.47;34.06;92518.50;2048178;70;20086;-71
2022/04/03 10:00:33;;;;;;;;;;;;;;;8.11;35.49;92518.63;2050940;70;20120;-71
2022/04/03 10:03:00;;;;;;;;;;;;;;;7.52;33.97;92506.25;2048089;70;20059;-71
2022/04/03 10:05:29;;;;;;;;;;;;;;;7.99;33.75;92511.47;2050902;70;20110;-73
2022/04/03 10:07:58;;;;;;;;;;;;;;;8.30;34.35;92506.56;2050744;70;20065;-70
2022/04/03 10:10:23;;;;;;;;;;;;;;;8.38;33.99;92506.34;2050942;70;20093;-68
2022/04/03 10:12:49;;;;;;;;;;;;;;;8.22;33.85;92506.00;2051076;70;20541;-73
2022/04/03 10:15:15;;;;;;;;;;;;;;;7.84;34.25;92509.78;2050850;69;20050;-67
2022/04/03 10:17:40;;;;;;;;;;;;;;;8.04;32.56;92502.72;2050848;70;20058;-68
2022/04/03 10:20:06;;;;;;;;;;;;;;;8.27;34.34;92504.22;2050890;70;20525;-67
2022/04/03 10:22:33;;;;;;;;;;;;;;;8.67;34.80;92506.16;2050729;70;20066;-67
2022/04/03 10:25:02;;;;;;;;;;;;;;;8.68;33.43;92504.81;2053202;69;20066;-67
2022/04/03 10:27:29;;;;;;;;;;;;;;;8.59;32.56;92506.34;2058650;69;20076;-67
2022/04/03 10:29:56;;;;;;;;;;;;;;;8.08;33.38;92502.28;2058659;69;20074;-68
2022/04/03 10:32:28;;;;;;;;;;;;;;;7.70;32.97;92506.78;2058064;69;20058;-70
2022/04/03 10:34:58;;;;;;;;;;;;;;;8.34;33.83;92498.41;2057915;69;20437;-69
2022/04/03 10:37:30;;;;;;;;;;;;;;;7.84;32.79;92496.50;2057969;69;20525;-68
2022/04/03 10:40:00;;;;;;;;;;;;;;;7.89;33.07;92494.72;2058312;69;20070;-67
2022/04/03 10:42:26;;;;;;;;;;;;;;;7.87;34.34;92494.56;2058569;69;20054;-68
2022/04/03 10:45:10;;;;;;;;;;;;;;;8.25;33.14;92496.41;2058347;69;20084;-69
2022/04/03 10:47:35;;;;;;;;;;;;;;;8.35;33.29;92488.66;2058389;69;20500;-71
2022/04/03 10:50:03;;;;;;;;;;;;;;;8.43;32.12;92498.94;2058473;69;20149;-71
2022/04/03 10:52:37;;;;;;;;;;;;;;;8.51;31.95;92496.66;2058424;69;20147;-73
2022/04/03 10:55:15;;;;;;;;;;;;;;;8.25;31.49;92493.59;2058361;69;20101;-73
2022/04/03 10:57:44;;;;;;;;;;;;;;;7.70;31.74;92494.81;2058436;69;20046;-69
2022/04/03 11:00:10;;;;;;;;;;;;;;;8.11;32.25;92487.78;2058512;69;20101;-67
2022/04/03 11:02:36;;;;;;;;;;;;;;;8.26;32.51;92497.88;2058201;69;20050;-67
2022/04/03 11:05:24;;;;;;;;;;;;;;;8.54;31.28;92495.47;2058521;69;20072;-68
2022/04/03 11:07:53;;;;;;;;;;;;;;;8.14;30.77;92488.66;2057165;69;20053;-68
2022/04/03 11:10:38;;;;;;;;;;;;;;;7.67;30.86;92482.72;2058293;69;20571;-68
2022/04/03 11:13:08;;;;;;;;;;;;;;;7.90;32.13;92482.91;2058213;69;20445;-68
2022/04/03 11:15:42;;;;;;;;;;;;;;;6.72;32.21;92491.59;2057607;69;20054;-68
2022/04/03 11:18:27;;;;;;;;;;;;;;;7.73;33.36;92483.13;2058382;69;20157;-66
2022/04/03 11:21:13;;;;;;;;;;;;;;;8.04;32.63;92485.19;2057619;69;20070;-70
2022/04/03 11:23:44;;;;;;;;;;;;;;;7.77;31.59;92485.47;2056744;69;20514;-67
2022/04/03 11:26:10;;;;;;;;;;;;;;;7.08;31.78;92487.09;2058185;69;20442;-68
2022/04/03 11:28:36;;;;;;;;;;;;;;;7.43;31.66;92487.44;2058215;69;20042;-67
2022/04/03 11:31:03;;;;;;;;;;;;;;;7.15;31.31;92489.00;2058120;69;20181;-68
2022/04/03 11:33:31;;;;;;;;;;;;;;;7.30;32.90;92485.13;2058609;69;20073;-69
2022/04/03 11:36:03;;;;;;;;;;;;;;;7.79;33.14;92483.56;2058137;69;20058;-69
2022/04/03 11:38:35;;;;;;;;;;;;;;;7.51;31.85;92481.63;2058355;69;20053;-68
2022/04/03 11:41:02;;;;;;;;;;;;;;;8.04;32.59;92480.31;2058281;69;20061;-69
2022/04/03 11:43:27;;;;;;;;;;;;;;;6.86;32.51;92477.88;2058318;69;20074;-69
2022/04/03 11:45:57;;;;;;;;;;;;;;;6.88;33.29;92480.81;2057657;69;20054;-69
2022/04/03 11:48:24;;;;;;;;;;;;;;;7.46;34.08;92474.28;2058389;69;20165;-72
2022/04/03 11:51:01;;;;;;;;;;;;;;;6.93;33.15;92470.66;2058299;69;20522;-72
2022/04/03 11:53:27;;;;;;;;;;;;;;;7.24;32.42;92473.47;2058217;69;20058;-74
2022/04/03 11:55:52;;;;;;;;;;;;;;;7.04;32.24;92472.81;2057706;69;20528;-72
2022/04/03 11:58:19;;;;;;;;;;;;;;;6.40;33.39;92466.88;2058272;69;20489;-69
2022/04/03 12:00:46;;;;;;;;;;;;;;;7.57;33.50;92465.97;2058316;69;20050;-69
2022/04/03 12:03:11;;;;;;;;;;;;;;;7.84;32.74;92464.97;2057953;69;20394;-68
2022/04/03 12:05:40;;;;;;;;;;;;;;;7.14;31.99;92465.13;2057793;69;20052;-68
2022/04/03 12:08:06;;;;;;;;;;;;;;;6.82;32.61;92460.78;2057809;69;20053;-70
2022/04/03 12:10:33;;;;;;;;;;;;;;;7.30;32.81;92463.44;2060558;69;20074;-70
2022/04/03 12:12:59;;;;;;;;;;;;;;;7.06;30.82;92458.97;2057681;69;20115;-67
2022/04/03 12:15:26;;;;;;;;;;;;;;;6.99;32.71;92457.06;2057661;69;20058;-64
2022/04/03 12:17:56;;;;;;;;;;;;;;;7.69;32.17;92463.25;2058167;69;20156;-67
2022/04/03 12:20:21;;;;;;;;;;;;;;;6.87;32.49;92460.50;2058080;69;20155;-65
2022/04/03 12:22:51;;;;;;;;;;;;;;;7.09;32.00;92463.38;2058123;69;20541;-68
2022/04/03 12:25:16;;;;;;;;;;;;;;;7.50;32.83;92472.50;2058145;69;20494;-67
2022/04/03 12:27:42;;;;;;;;;;;;;;;7.09;31.28;92461.28;2058142;69;20066;-68
2022/04/03 12:30:09;;;;;;;;;;;;;;;7.28;32.67;92463.28;2057887;69;20049;-67
2022/04/03 12:32:36;;;;;;;;;;;;;;;7.27;32.61;92464.63;2057225;69;20042;-66
2022/04/03 12:35:05;;;;;;;;;;;;;;;7.18;31.13;92465.41;2057619;69;20046;-67
2022/04/03 12:37:37;;;;;;;;;;;;;;;7.07;32.28;92457.63;2058009;69;20053;-65
2022/04/03 12:40:11;;;;;;;;;;;;;;;7.53;32.82;92462.91;2058148;69;20136;-65
2022/04/03 12:42:40;;;;;;;;;;;;;;;7.84;31.82;92462.88;2058207;69;20096;-66
2022/04/03 12:45:12;;;;;;;;;;;;;;;7.36;31.25;92466.66;2057545;69;20147;-66
2022/04/03 12:47:42;;;;;;;;;;;;;;;8.30;32.34;92458.16;2058032;69;20480;-67
2022/04/03 12:50:13;;;;;;;;;;;;;;;8.65;31.38;92461.84;2058112;69;20560;-66
2022/04/03 12:52:39;;;;;;;;;;;;;;;8.35;32.23;92457.81;2057990;69;20511;-67
2022/04/03 12:55:05;;;;;;;;;;;;;;;8.81;31.24;92450.91;2057753;69;20145;-67
2022/04/03 13:00:16;;;;;;;;;;;;;;;8.54;30.97;92451.31;2057251;69;20054;-67
2022/04/03 13:02:46;;;;;;;;;;;;;;;8.74;31.60;92449.06;2057668;69;20569;-67